Time;durP1;ratioP1;P1;durP2;ratioP2;P2;SDS_P1;SDS_P2;PMS_P1;PMS_P2;Temp;Humidity;BMP_temperature;BMP_pressure;BME280_temperature;BME280_humidity;BME280_pressure;Samples;Min_cycle;Max_cycle;Signal;HPM_P1;HPM_P2
2023/12/13 00:02:07;;;;;;;111.07;31.23;;;7.90;99.90;;;;;;5061420;28;20049;-87
2023/12/13 00:04:32;;;;;;;74.13;27.80;;;7.60;99.90;;;;;;5064279;28;20120;-87
2023/12/13 00:06:58;;;;;;;81.07;27.60;;;7.60;99.90;;;;;;5072976;28;20111;-86
2023/12/13 00:09:24;;;;;;;104.13;32.00;;;7.60;99.90;;;;;;5062328;28;20396;-86
2023/12/13 00:11:49;;;;;;;88.45;29.10;;;7.60;99.90;;;;;;5069226;28;20114;-84
2023/12/13 00:14:17;;;;;;;105.72;31.10;;;7.60;99.90;;;;;;5061631;28;20119;-87
2023/12/13 00:16:43;;;;;;;98.00;31.02;;;7.50;99.90;;;;;;5067685;28;20395;-85
2023/12/13 00:19:08;;;;;;;77.82;26.15;;;7.50;99.90;;;;;;5063880;28;20059;-87
2023/12/13 00:21:35;;;;;;;81.20;26.52;;;7.50;99.90;;;;;;5053241;28;20048;-87
2023/12/13 00:24:01;;;;;;;75.25;26.75;;;7.50;99.90;;;;;;5058691;28;20266;-86
2023/12/13 00:26:27;;;;;;;83.00;26.45;;;7.50;99.90;;;;;;5059776;28;20044;-86
2023/12/13 00:28:52;;;;;;;78.05;24.95;;;7.50;99.90;;;;;;5063171;28;20049;-86
2023/12/13 00:31:18;;;;;;;56.55;21.23;;;7.50;99.90;;;;;;5061414;28;20119;-87
2023/12/13 00:33:44;;;;;;;55.20;21.65;;;7.50;99.90;;;;;;5069734;28;20049;-87
2023/12/13 00:36:10;;;;;;;62.15;21.10;;;7.50;99.90;;;;;;5064464;28;20412;-86
2023/12/13 00:38:35;;;;;;;50.40;20.58;;;7.50;99.90;;;;;;5067512;28;20045;-87
2023/12/13 00:41:01;;;;;;;40.75;17.40;;;7.50;99.90;;;;;;5066346;28;20044;-85
2023/12/13 00:43:27;;;;;;;56.50;19.90;;;8.00;99.90;;;;;;5040884;28;20044;-85
2023/12/13 00:45:52;;;;;;;48.22;19.45;;;7.50;99.90;;;;;;5072809;28;20040;-87
2023/12/13 00:48:18;;;;;;;40.38;17.38;;;7.50;99.90;;;;;;5067970;28;20812;-86
2023/12/13 00:50:44;;;;;;;62.25;22.13;;;7.50;99.90;;;;;;5068103;28;20059;-86
2023/12/13 00:53:12;;;;;;;57.72;21.20;;;7.50;99.90;;;;;;5053611;28;20045;-86
2023/12/13 00:55:38;;;;;;;47.33;18.77;;;7.50;99.90;;;;;;5044278;28;20052;-85
2023/12/13 00:58:04;;;;;;;63.33;21.67;;;7.50;99.90;;;;;;5058559;28;20048;-86
2023/12/13 01:00:29;;;;;;;83.38;24.85;;;7.40;99.90;;;;;;5060392;28;20171;-86
2023/12/13 01:02:55;;;;;;;59.92;23.85;;;7.50;99.90;;;;;;5064927;28;20049;-86
2023/12/13 01:05:21;;;;;;;82.20;26.98;;;7.50;99.90;;;;;;5060568;28;20063;-84
2023/12/13 01:07:47;;;;;;;59.67;21.45;;;7.50;99.90;;;;;;5067590;28;20130;-84
2023/12/13 01:10:12;;;;;;;98.68;29.48;;;8.00;99.90;;;;;;5056969;28;20041;-85
2023/12/13 01:12:41;;;;;;;77.85;26.33;;;7.50;99.90;;;;;;5036609;28;20716;-85
2023/12/13 01:15:10;;;;;;;71.95;24.73;;;7.50;99.90;;;;;;5066027;28;20072;-85
2023/12/13 01:17:36;;;;;;;82.22;26.63;;;7.50;99.90;;;;;;5068278;28;20063;-86
2023/12/13 01:20:06;;;;;;;107.00;28.65;;;7.50;99.90;;;;;;5058933;28;20057;-86
2023/12/13 01:22:31;;;;;;;78.25;28.33;;;7.50;99.90;;;;;;5056159;28;20059;-85
2023/12/13 01:24:57;;;;;;;105.43;30.95;;;7.50;99.90;;;;;;5061700;28;20044;-86
2023/12/13 01:27:23;;;;;;;113.28;32.35;;;7.50;99.90;;;;;;5055467;28;20051;-87
2023/12/13 01:29:48;;;;;;;93.70;29.77;;;7.50;99.90;;;;;;5058283;28;20037;-86
2023/12/13 01:32:14;;;;;;;114.22;32.55;;;7.50;99.90;;;;;;5063037;28;20157;-85
2023/12/13 01:34:39;;;;;;;92.38;28.15;;;7.50;99.90;;;;;;5051431;28;20048;-86
2023/12/13 01:37:05;;;;;;;73.90;28.17;;;7.50;99.90;;;;;;5066918;28;20075;-86
2023/12/13 01:39:31;;;;;;;66.97;26.20;;;7.50;99.90;;;;;;5061895;28;20045;-83
2023/12/13 01:41:57;;;;;;;100.60;30.52;;;7.50;99.90;;;;;;5064128;28;20393;-86
2023/12/13 01:44:23;;;;;;;98.35;32.25;;;7.50;99.90;;;;;;5068983;28;20450;-86
2023/12/13 01:46:50;;;;;;;113.80;32.67;;;7.50;99.90;;;;;;5044531;28;20049;-86
2023/12/13 01:49:16;;;;;;;78.85;27.88;;;7.50;99.90;;;;;;5064853;28;20360;-86
2023/12/13 01:51:42;;;;;;;79.40;28.38;;;7.50;99.90;;;;;;5064667;28;20419;-86
2023/12/13 01:54:11;;;;;;;82.20;30.45;;;7.50;99.90;;;;;;5043393;28;20053;-87
2023/12/13 01:56:42;;;;;;;127.72;34.75;;;7.40;99.90;;;;;;5062407;28;20049;-86
2023/12/13 01:59:08;;;;;;;96.45;32.35;;;7.50;99.90;;;;;;5062875;28;20056;-86
2023/12/13 02:01:35;;;;;;;73.22;28.27;;;7.40;99.90;;;;;;5056986;28;20059;-86
2023/12/13 02:04:02;;;;;;;109.25;34.13;;;7.40;99.90;;;;;;5069525;28;20044;-87
2023/12/13 02:06:28;;;;;;;98.93;34.58;;;7.40;99.90;;;;;;5069652;28;20084;-87
2023/12/13 02:08:54;;;;;;;87.05;31.55;;;7.40;99.90;;;;;;5064499;28;20078;-87
2023/12/13 02:11:20;;;;;;;76.05;28.40;;;7.50;99.90;;;;;;5061134;28;20045;-87
2023/12/13 02:13:46;;;;;;;110.13;35.85;;;7.40;99.90;;;;;;5064040;28;20082;-87
2023/12/13 02:16:11;;;;;;;114.68;36.95;;;7.50;99.90;;;;;;5061449;28;20052;-86
2023/12/13 02:18:37;;;;;;;109.03;35.70;;;7.50;99.90;;;;;;5064330;28;20048;-85
2023/12/13 02:21:03;;;;;;;103.45;31.80;;;7.50;99.90;;;;;;5066686;28;20048;-87
2023/12/13 02:23:28;;;;;;;76.20;30.70;;;7.50;99.90;;;;;;5057069;28;20040;-86
2023/12/13 02:26:00;;;;;;;89.05;30.35;;;7.50;99.90;;;;;;5055661;28;20397;-86
2023/12/13 02:28:26;;;;;;;93.15;31.52;;;7.60;99.90;;;;;;5056859;28;20037;-87
2023/12/13 02:31:00;;;;;;;77.00;29.85;;;7.50;99.90;;;;;;5065866;28;20053;-87
2023/12/13 02:33:27;;;;;;;81.15;32.05;;;7.50;99.90;;;;;;5051644;28;20057;-87
2023/12/13 02:35:54;;;;;;;80.15;31.63;;;7.50;99.90;;;;;;5066987;28;20037;-87
2023/12/13 02:38:20;;;;;;;110.75;36.10;;;7.50;99.90;;;;;;5064969;28;20068;-87
2023/12/13 02:40:46;;;;;;;78.32;30.00;;;7.50;99.90;;;;;;5061152;28;20520;-88
2023/12/13 02:43:11;;;;;;;80.93;31.15;;;7.50;99.90;;;;;;5050787;28;20098;-86
2023/12/13 02:45:37;;;;;;;99.30;33.53;;;7.50;99.90;;;;;;5055218;28;20044;-87
2023/12/13 02:48:03;;;;;;;94.68;34.20;;;7.50;99.90;;;;;;5063718;28;20491;-87
2023/12/13 02:50:29;;;;;;;63.17;26.13;;;7.50;99.90;;;;;;5052609;28;20056;-87
2023/12/13 02:52:55;;;;;;;69.78;28.75;;;7.50;99.90;;;;;;5040211;28;20408;-87
2023/12/13 02:55:20;;;;;;;78.22;28.60;;;7.50;99.90;;;;;;5060371;28;20448;-87
2023/12/13 02:57:46;;;;;;;70.97;28.00;;;7.50;99.90;;;;;;5069218;28;20045;-86
2023/12/13 03:00:12;;;;;;;84.30;30.15;;;7.60;99.90;;;;;;5054705;28;20044;-86
2023/12/13 03:02:41;;;;;;;72.47;28.08;;;7.60;99.90;;;;;;5059779;28;20052;-87
2023/12/13 03:05:07;;;;;;;57.70;23.77;;;7.60;99.90;;;;;;5055415;28;20047;-86
2023/12/13 03:07:33;;;;;;;84.65;29.80;;;7.60;99.90;;;;;;5052487;28;20123;-87
2023/12/13 03:09:59;;;;;;;66.95;26.85;;;7.60;99.90;;;;;;5064090;28;20124;-87
2023/12/13 03:12:25;;;;;;;73.30;27.52;;;7.60;99.90;;;;;;5057254;28;20033;-87
2023/12/13 03:14:50;;;;;;;59.28;25.98;;;7.60;99.90;;;;;;5056558;28;20039;-85
2023/12/13 03:17:16;;;;;;;58.55;25.83;;;7.50;99.90;;;;;;5058785;28;20037;-87
2023/12/13 03:19:42;;;;;;;70.28;27.73;;;7.50;99.90;;;;;;5054096;28;20393;-87
2023/12/13 03:22:07;;;;;;;72.93;28.30;;;7.50;99.90;;;;;;5057309;28;20115;-86
2023/12/13 03:24:35;;;;;;;93.45;31.45;;;7.50;99.90;;;;;;5058448;28;20048;-87
2023/12/13 03:27:00;;;;;;;71.97;25.55;;;7.80;99.90;;;;;;5050657;28;20049;-86
2023/12/13 03:29:26;;;;;;;68.13;28.10;;;7.50;99.90;;;;;;5053742;28;20086;-87
2023/12/13 03:31:51;;;;;;;85.00;30.95;;;7.90;99.90;;;;;;5061293;28;20049;-86
2023/12/13 03:34:17;;;;;;;95.55;31.33;;;7.50;99.90;;;;;;5052419;28;20060;-86
2023/12/13 03:36:43;;;;;;;64.43;24.40;;;7.50;99.90;;;;;;5049975;28;20044;-86
2023/12/13 03:39:08;;;;;;;55.53;23.90;;;7.50;99.90;;;;;;5033398;28;20041;-85
2023/12/13 03:41:34;;;;;;;56.55;24.27;;;7.50;99.90;;;;;;5060048;28;20044;-86
2023/12/13 03:44:00;;;;;;;56.72;24.48;;;7.50;99.90;;;;;;5055951;28;20110;-86
2023/12/13 03:46:26;;;;;;;56.25;23.35;;;7.50;99.90;;;;;;5070305;28;20051;-87
2023/12/13 03:48:51;;;;;;;55.35;21.92;;;8.00;99.90;;;;;;5053423;28;20047;-87
2023/12/13 03:51:17;;;;;;;46.50;21.08;;;7.50;99.90;;;;;;5049848;28;20118;-85
2023/12/13 03:53:43;;;;;;;83.93;29.23;;;7.50;99.90;;;;;;5062640;28;20401;-86
2023/12/13 03:56:10;;;;;;;56.42;24.33;;;7.50;99.90;;;;;;5064290;28;20053;-86
2023/12/13 03:58:36;;;;;;;49.80;21.60;;;7.60;99.90;;;;;;5070046;28;20047;-86
2023/12/13 04:01:01;;;;;;;47.53;22.50;;;7.50;99.90;;;;;;5066384;28;20049;-84
2023/12/13 04:03:27;;;;;;;69.93;26.85;;;7.50;99.90;;;;;;5067921;28;20045;-85
2023/12/13 04:05:53;;;;;;;71.85;27.02;;;7.60;99.90;;;;;;5069669;28;20056;-86
2023/12/13 04:08:18;;;;;;;45.38;21.35;;;7.60;99.90;;;;;;5064167;28;20088;-84
2023/12/13 04:10:44;;;;;;;67.68;24.90;;;7.50;99.90;;;;;;5056947;28;20381;-86
2023/12/13 04:13:10;;;;;;;49.17;23.77;;;7.60;99.90;;;;;;5059104;28;20036;-86
2023/12/13 04:15:35;;;;;;;62.75;24.58;;;7.60;99.90;;;;;;5063755;28;20045;-86
2023/12/13 04:18:01;;;;;;;56.65;22.83;;;7.50;99.90;;;;;;5062514;28;20082;-85
2023/12/13 04:20:27;;;;;;;62.40;23.33;;;7.60;99.90;;;;;;5073468;28;20064;-84
2023/12/13 04:22:53;;;;;;;59.22;23.15;;;7.60;99.90;;;;;;5062613;28;20041;-86
2023/12/13 04:25:18;;;;;;;63.00;23.15;;;7.60;99.90;;;;;;5065367;28;20068;-86
2023/12/13 04:27:47;;;;;;;55.85;24.42;;;7.60;99.90;;;;;;5052475;28;20123;-86
2023/12/13 04:30:13;;;;;;;45.22;20.55;;;7.60;99.90;;;;;;5059624;28;20420;-86
2023/12/13 04:32:39;;;;;;;44.17;20.38;;;7.60;99.90;;;;;;5059731;28;20123;-86
2023/12/13 04:35:05;;;;;;;42.97;19.60;;;7.60;99.90;;;;;;5060123;28;20127;-87
2023/12/13 04:37:31;;;;;;;50.85;22.55;;;7.60;99.90;;;;;;5055084;28;20484;-86
2023/12/13 04:39:58;;;;;;;50.20;22.73;;;7.60;99.90;;;;;;5060612;28;20052;-85
2023/12/13 04:42:24;;;;;;;48.83;21.52;;;7.70;99.90;;;;;;5057043;28;20045;-86
2023/12/13 04:44:50;;;;;;;67.82;25.95;;;7.60;99.90;;;;;;5059979;28;20056;-86
2023/12/13 04:47:16;;;;;;;52.13;21.80;;;7.60;99.90;;;;;;5055996;28;20376;-87
2023/12/13 04:49:41;;;;;;;46.70;21.30;;;7.70;99.90;;;;;;5061579;28;20049;-86
2023/12/13 04:52:07;;;;;;;42.17;20.02;;;7.60;99.90;;;;;;5071337;28;20052;-86
2023/12/13 04:54:35;;;;;;;40.63;19.33;;;7.60;99.90;;;;;;5054929;28;20048;-86
2023/12/13 04:57:01;;;;;;;39.30;18.85;;;7.60;99.90;;;;;;5060263;28;20064;-84
2023/12/13 04:59:27;;;;;;;40.67;17.48;;;7.60;99.90;;;;;;5061136;28;20064;-87
2023/12/13 05:01:52;;;;;;;38.35;19.52;;;7.70;99.90;;;;;;5066229;28;20053;-86
2023/12/13 05:04:18;;;;;;;57.65;24.75;;;7.60;99.90;;;;;;5059585;28;20704;-87
2023/12/13 05:06:43;;;;;;;47.97;21.48;;;7.60;99.90;;;;;;5062922;28;20115;-85
2023/12/13 05:09:09;;;;;;;51.90;21.88;;;7.60;99.90;;;;;;5062452;28;20098;-86
2023/12/13 05:11:35;;;;;;;45.83;20.60;;;7.60;99.90;;;;;;5057295;28;20094;-86
2023/12/13 05:14:00;;;;;;;47.83;21.23;;;7.60;99.90;;;;;;5054015;28;20145;-86
2023/12/13 05:16:26;;;;;;;44.28;21.08;;;7.70;99.90;;;;;;5053062;28;20051;-87
2023/12/13 05:18:51;;;;;;;43.13;20.17;;;7.70;99.90;;;;;;5059590;28;20586;-86
2023/12/13 05:21:17;;;;;;;44.97;21.10;;;7.70;99.90;;;;;;5065307;28;20041;-86
2023/12/13 05:23:43;;;;;;;47.42;24.52;;;7.70;99.90;;;;;;5061037;28;20055;-86
2023/12/13 05:26:09;;;;;;;46.70;22.23;;;8.10;99.90;;;;;;5068596;28;20052;-86
2023/12/13 05:28:34;;;;;;;43.70;20.80;;;7.70;99.90;;;;;;5053833;28;20037;-86
2023/12/13 05:31:00;;;;;;;44.10;22.05;;;7.70;99.90;;;;;;5059035;28;20116;-85
2023/12/13 05:33:26;;;;;;;51.33;23.33;;;7.70;99.90;;;;;;5067822;28;20360;-86
2023/12/13 05:35:52;;;;;;;62.50;25.77;;;7.70;99.90;;;;;;5062681;28;20045;-86
2023/12/13 05:38:17;;;;;;;42.08;20.30;;;7.70;99.90;;;;;;5053432;28;20086;-87
2023/12/13 05:40:43;;;;;;;52.65;22.35;;;7.70;99.90;;;;;;5063038;28;20442;-87
2023/12/13 05:43:09;;;;;;;46.40;21.27;;;7.70;99.90;;;;;;5059205;28;20403;-85
2023/12/13 05:45:34;;;;;;;47.63;23.75;;;7.70;99.90;;;;;;5063210;28;20049;-86
2023/12/13 05:48:00;;;;;;;46.72;24.65;;;7.70;99.90;;;;;;5055077;28;20221;-86
2023/12/13 05:50:25;;;;;;;73.68;32.72;;;7.70;99.90;;;;;;5057215;28;20092;-87
2023/12/13 05:52:51;;;;;;;59.28;30.73;;;7.70;99.90;;;;;;5047659;28;20101;-85
2023/12/13 05:55:17;;;;;;;69.20;31.80;;;7.70;99.90;;;;;;5060672;28;20090;-85
2023/12/13 05:57:42;;;;;;;65.20;29.60;;;7.70;99.90;;;;;;5062152;28;20337;-87
2023/12/13 06:00:08;;;;;;;58.10;28.27;;;7.70;99.90;;;;;;5057149;28;20480;-86
2023/12/13 06:02:35;;;;;;;57.75;26.00;;;7.70;99.90;;;;;;5062175;28;20059;-87
2023/12/13 06:05:02;;;;;;;69.43;28.80;;;7.70;99.90;;;;;;5054652;28;20538;-88
2023/12/13 06:07:29;;;;;;;68.55;29.17;;;7.70;99.90;;;;;;5044794;28;20059;-84
2023/12/13 06:09:55;;;;;;;83.85;30.88;;;7.70;99.90;;;;;;5051183;28;20044;-86
2023/12/13 06:12:20;;;;;;;67.15;26.63;;;7.70;99.90;;;;;;5054951;28;20412;-84
2023/12/13 06:14:46;;;;;;;67.10;27.50;;;7.60;99.90;;;;;;5065385;28;20056;-86
2023/12/13 06:17:12;;;;;;;53.42;23.15;;;7.70;99.90;;;;;;5058585;28;20045;-87
2023/12/13 06:19:37;;;;;;;71.25;27.20;;;7.70;99.90;;;;;;5059974;28;20083;-86
2023/12/13 06:22:03;;;;;;;89.93;31.25;;;7.70;99.90;;;;;;5066133;28;20050;-86
2023/12/13 06:24:29;;;;;;;90.55;31.40;;;7.60;99.90;;;;;;5056254;28;20052;-86
2023/12/13 06:26:55;;;;;;;94.22;29.88;;;7.70;99.90;;;;;;5057371;28;20132;-86
2023/12/13 06:29:20;;;;;;;93.13;33.90;;;7.60;99.90;;;;;;5053021;28;20439;-88
2023/12/13 06:31:46;;;;;;;125.53;37.75;;;7.70;99.90;;;;;;5054166;28;20053;-87
2023/12/13 06:34:11;;;;;;;90.70;30.65;;;8.20;99.90;;;;;;5054771;28;20044;-87
2023/12/13 06:36:38;;;;;;;112.68;35.00;;;7.60;99.90;;;;;;5061970;28;20389;-86
2023/12/13 06:39:04;;;;;;;87.82;32.13;;;7.60;99.90;;;;;;5052716;28;20045;-85
2023/12/13 06:41:33;;;;;;;98.63;34.10;;;7.60;99.90;;;;;;5047813;28;20059;-87
2023/12/13 06:44:00;;;;;;;98.15;34.00;;;7.60;99.90;;;;;;5055525;28;20052;-87
2023/12/13 06:46:26;;;;;;;85.47;30.27;;;7.60;99.90;;;;;;5060160;28;20076;-86
2023/12/13 06:48:53;;;;;;;81.50;30.67;;;7.60;99.90;;;;;;5054447;28;20129;-85
2023/12/13 06:51:19;;;;;;;61.83;27.75;;;7.90;99.90;;;;;;5059531;28;20045;-87
2023/12/13 06:53:46;;;;;;;75.38;29.90;;;7.60;99.90;;;;;;5056026;28;20047;-86
2023/12/13 06:56:12;;;;;;;69.65;30.58;;;7.80;99.90;;;;;;5062221;28;20053;-87
2023/12/13 06:58:37;;;;;;;118.57;35.92;;;7.60;99.90;;;;;;5058755;28;20047;-86
2023/12/13 07:01:04;;;;;;;89.40;34.25;;;7.60;99.90;;;;;;5062744;28;20059;-86
2023/12/13 07:03:30;;;;;;;93.18;33.67;;;7.60;99.90;;;;;;5056578;28;20083;-85
2023/12/13 07:05:55;;;;;;;103.00;35.17;;;7.60;99.90;;;;;;5056692;28;20037;-89
2023/12/13 07:08:21;;;;;;;100.63;36.45;;;7.60;99.90;;;;;;5055465;28;20051;-87
2023/12/13 07:10:47;;;;;;;73.53;29.20;;;7.70;99.90;;;;;;5061592;28;20079;-86
2023/12/13 07:13:12;;;;;;;90.18;36.05;;;7.60;99.90;;;;;;5050228;28;20073;-87
2023/12/13 07:15:38;;;;;;;132.13;39.47;;;7.60;99.90;;;;;;5060157;28;20049;-86
2023/12/13 07:18:04;;;;;;;88.82;32.53;;;7.70;99.90;;;;;;5059268;28;20057;-85
2023/12/13 07:20:30;;;;;;;77.22;32.50;;;7.70;99.90;;;;;;5060017;28;20052;-85
2023/12/13 07:22:57;;;;;;;100.72;37.35;;;7.60;99.90;;;;;;5054510;28;20385;-83
2023/12/13 07:25:22;;;;;;;109.20;37.00;;;7.70;99.90;;;;;;5053820;28;20136;-85
2023/12/13 07:27:48;;;;;;;57.92;26.85;;;7.70;99.90;;;;;;5059664;28;20120;-86
2023/12/13 07:30:14;;;;;;;67.15;30.90;;;7.60;99.90;;;;;;5058575;28;20041;-86
2023/12/13 07:32:44;;;;;;;75.30;30.85;;;7.70;99.90;;;;;;5058251;28;20105;-86
2023/12/13 07:35:10;;;;;;;76.00;33.22;;;7.70;99.90;;;;;;5064148;28;20045;-86
2023/12/13 07:37:36;;;;;;;78.32;33.42;;;7.70;99.90;;;;;;5054275;28;20072;-84
2023/12/13 07:40:03;;;;;;;69.63;29.40;;;7.70;99.90;;;;;;5053501;28;20045;-83
2023/12/13 07:42:31;;;;;;;98.60;35.97;;;7.70;99.90;;;;;;5056310;28;20049;-84
2023/12/13 07:44:57;;;;;;;81.60;33.30;;;7.70;99.90;;;;;;5067231;28;20048;-84
2023/12/13 07:47:23;;;;;;;88.43;33.58;;;7.70;99.90;;;;;;5064736;28;20040;-84
2023/12/13 07:49:49;;;;;;;93.22;33.70;;;7.70;99.90;;;;;;5062904;28;20052;-84
2023/12/13 07:52:15;;;;;;;109.15;42.35;;;7.90;99.90;;;;;;5068348;28;20508;-83
2023/12/13 07:54:40;;;;;;;128.43;41.35;;;7.70;99.90;;;;;;5083743;28;20140;-84
2023/12/13 07:57:06;;;;;;;97.45;37.85;;;7.70;99.90;;;;;;5060981;28;20049;-84
2023/12/13 07:59:32;;;;;;;70.55;30.90;;;7.70;99.90;;;;;;5062999;28;20446;-84
2023/12/13 08:01:57;;;;;;;103.85;38.08;;;7.70;99.90;;;;;;5062179;28;20072;-84
2023/12/13 08:04:23;;;;;;;58.38;28.77;;;7.70;99.90;;;;;;5059564;28;20439;-85
2023/12/13 08:06:48;;;;;;;102.03;35.42;;;7.70;99.90;;;;;;5057530;28;20428;-86
2023/12/13 08:09:15;;;;;;;103.55;38.63;;;7.70;99.90;;;;;;5060558;28;20563;-85
2023/12/13 08:11:43;;;;;;;70.20;29.88;;;7.70;99.90;;;;;;5038420;28;20504;-85
2023/12/13 08:14:08;;;;;;;102.03;38.40;;;7.70;99.90;;;;;;5066500;28;20461;-85
2023/12/13 08:16:34;;;;;;;85.90;34.67;;;7.70;99.90;;;;;;5065008;28;20087;-85
2023/12/13 08:18:59;;;;;;;108.68;35.83;;;7.70;99.90;;;;;;5061541;28;20052;-85
2023/12/13 08:21:25;;;;;;;117.15;39.30;;;7.70;99.90;;;;;;5058348;28;20049;-86
2023/12/13 08:23:51;;;;;;;74.78;30.80;;;7.70;99.90;;;;;;5058427;28;20106;-84
2023/12/13 08:26:17;;;;;;;50.60;25.80;;;7.70;99.90;;;;;;5061972;28;20041;-86
2023/12/13 08:28:43;;;;;;;65.50;31.30;;;7.70;99.90;;;;;;5069933;28;20063;-86
2023/12/13 08:31:11;;;;;;;62.42;27.75;;;7.70;99.90;;;;;;5062053;28;20076;-85
2023/12/13 08:33:43;;;;;;;121.65;39.13;;;7.70;99.90;;;;;;5060427;28;20048;-86
2023/12/13 08:36:13;;;;;;;125.55;40.42;;;7.70;99.90;;;;;;5067158;28;20060;-86
2023/12/13 08:38:40;;;;;;;142.05;42.72;;;7.70;99.90;;;;;;5064666;28;20120;-90
2023/12/13 08:41:07;;;;;;;102.65;37.28;;;7.80;99.90;;;;;;5062700;28;20138;-85
2023/12/13 08:43:33;;;;;;;191.07;47.45;;;7.90;99.90;;;;;;5064360;28;20051;-86
2023/12/13 08:45:58;;;;;;;113.60;38.35;;;7.80;99.90;;;;;;5060858;28;20396;-84
2023/12/13 08:48:25;;;;;;;97.25;36.85;;;7.80;99.90;;;;;;5063104;28;20120;-86
2023/12/13 08:50:51;;;;;;;113.13;38.70;;;7.80;99.90;;;;;;5066349;28;20044;-83
2023/12/13 08:53:16;;;;;;;122.35;38.85;;;7.80;99.90;;;;;;5066193;28;20093;-86
2023/12/13 08:55:42;;;;;;;106.70;37.40;;;7.80;99.90;;;;;;5061155;28;20044;-85
2023/12/13 08:58:08;;;;;;;107.75;37.47;;;7.80;99.90;;;;;;5065730;28;20052;-86
2023/12/13 09:00:33;;;;;;;107.63;38.25;;;7.80;99.90;;;;;;5063825;28;20515;-85
2023/12/13 09:02:59;;;;;;;112.93;40.45;;;7.80;99.90;;;;;;5063896;28;20048;-84
2023/12/13 09:05:25;;;;;;;131.95;44.15;;;7.90;99.90;;;;;;5057229;28;20040;-86
2023/12/13 09:07:50;;;;;;;112.57;38.97;;;7.90;99.90;;;;;;5061079;28;20045;-87
2023/12/13 09:10:16;;;;;;;122.28;38.60;;;7.90;99.90;;;;;;5059042;28;20074;-84
2023/12/13 09:12:42;;;;;;;157.88;43.10;;;7.90;99.90;;;;;;5052345;28;20362;-87
2023/12/13 09:15:08;;;;;;;102.90;38.28;;;7.90;99.90;;;;;;5060704;28;20084;-84
2023/12/13 09:17:34;;;;;;;130.65;42.10;;;8.00;99.90;;;;;;5051928;28;20525;-85
2023/12/13 09:20:00;;;;;;;117.60;39.75;;;8.00;99.90;;;;;;5051835;28;20045;-83
2023/12/13 09:22:25;;;;;;;109.50;36.83;;;8.00;99.90;;;;;;5058337;28;20049;-85
2023/12/13 09:24:51;;;;;;;127.38;40.47;;;8.00;99.90;;;;;;5053282;28;20444;-84
2023/12/13 09:27:17;;;;;;;132.63;43.35;;;8.00;99.90;;;;;;5061678;28;20044;-85
2023/12/13 09:29:43;;;;;;;122.13;40.97;;;8.00;99.90;;;;;;5061067;28;20349;-85
2023/12/13 09:32:09;;;;;;;91.93;36.42;;;8.00;99.90;;;;;;5047014;28;20117;-85
2023/12/13 09:34:35;;;;;;;142.10;43.63;;;8.10;99.90;;;;;;5053499;28;20084;-86
2023/12/13 09:37:01;;;;;;;128.05;41.20;;;8.10;99.90;;;;;;5053411;28;20094;-84
2023/12/13 09:39:26;;;;;;;120.53;39.58;;;8.10;99.90;;;;;;5051902;28;20049;-86
2023/12/13 09:42:02;;;;;;;128.63;44.28;;;8.10;99.90;;;;;;5062737;28;20053;-86
2023/12/13 09:44:29;;;;;;;111.20;39.97;;;8.10;99.90;;;;;;5061901;28;20052;-85
2023/12/13 09:47:02;;;;;;;108.47;40.13;;;8.10;99.90;;;;;;5059796;28;20050;-85
2023/12/13 09:49:28;;;;;;;89.75;34.55;;;8.10;99.90;;;;;;5058651;28;20048;-84
2023/12/13 09:51:59;;;;;;;79.55;33.58;;;8.10;99.90;;;;;;5062401;28;20769;-85
2023/12/13 09:54:25;;;;;;;87.88;35.40;;;8.20;99.90;;;;;;5052899;28;20428;-85
2023/12/13 09:56:50;;;;;;;107.50;39.97;;;8.20;99.90;;;;;;5062119;28;20035;-85
2023/12/13 09:59:16;;;;;;;89.35;36.22;;;8.20;99.90;;;;;;5059842;28;20036;-86
2023/12/13 10:01:42;;;;;;;83.95;35.17;;;8.20;99.90;;;;;;5054860;28;20072;-85
2023/12/13 10:04:07;;;;;;;76.70;32.90;;;8.20;99.90;;;;;;5063023;28;20041;-84
2023/12/13 10:06:33;;;;;;;96.63;34.63;;;8.20;99.90;;;;;;5049685;28;20045;-85
2023/12/13 10:09:01;;;;;;;91.30;34.17;;;8.20;99.90;;;;;;5059373;28;20045;-85
2023/12/13 10:11:27;;;;;;;103.68;39.15;;;8.20;99.90;;;;;;5071027;28;20041;-89
2023/12/13 10:13:52;;;;;;;74.10;31.95;;;8.20;99.90;;;;;;5053777;28;20095;-86
2023/12/13 10:16:19;;;;;;;86.80;35.58;;;8.70;99.90;;;;;;5054086;28;20476;-85
2023/12/13 10:18:47;;;;;;;84.10;34.22;;;8.30;99.90;;;;;;5062708;28;20070;-86
2023/12/13 10:21:14;;;;;;;87.95;35.55;;;8.20;99.90;;;;;;5071060;28;20520;-85
2023/12/13 10:23:43;;;;;;;75.75;32.65;;;8.30;99.90;;;;;;5065986;28;20033;-86
2023/12/13 10:26:10;;;;;;;104.30;40.63;;;8.50;99.90;;;;;;5061359;28;20110;-84
2023/12/13 10:28:36;;;;;;;89.65;34.90;;;8.50;99.90;;;;;;5070467;28;20086;-86
2023/12/13 10:31:03;;;;;;;83.35;33.47;;;8.30;99.90;;;;;;5071144;28;20106;-84
2023/12/13 10:33:29;;;;;;;69.80;31.95;;;8.30;99.90;;;;;;5070584;28;20129;-86
2023/12/13 10:35:57;;;;;;;80.35;31.70;;;8.40;99.90;;;;;;5063637;28;20051;-86
2023/12/13 10:38:25;;;;;;;96.95;36.63;;;8.40;99.90;;;;;;5051939;28;20052;-86
2023/12/13 10:40:52;;;;;;;93.47;35.97;;;8.40;99.90;;;;;;5057450;28;20136;-85
2023/12/13 10:43:20;;;;;;;92.35;34.95;;;8.40;99.90;;;;;;5065157;28;20048;-84
2023/12/13 10:46:01;;;;;;;90.95;36.90;;;8.40;99.90;;;;;;5059681;28;20105;-86
2023/12/13 10:48:37;;;;;;;85.72;32.08;;;8.40;99.90;;;;;;5082395;28;20064;-87
2023/12/13 10:51:03;;;;;;;74.93;33.10;;;8.50;99.90;;;;;;5057062;28;20052;-87
2023/12/13 10:53:32;;;;;;;61.22;29.63;;;8.50;99.90;;;;;;5063586;28;20044;-86
2023/12/13 10:56:00;;;;;;;70.88;31.80;;;8.50;99.90;;;;;;5064269;28;20052;-86
2023/12/13 10:58:26;;;;;;;74.68;33.58;;;8.50;99.90;;;;;;5066679;28;20093;-86
2023/12/13 11:00:53;;;;;;;67.85;31.70;;;8.50;99.90;;;;;;5058816;28;20048;-86
2023/12/13 11:03:25;;;;;;;59.08;28.15;;;8.60;99.90;;;;;;5058272;28;20136;-86
2023/12/13 11:05:51;;;;;;;73.13;32.65;;;8.50;99.90;;;;;;5041007;28;20456;-85
2023/12/13 11:08:19;;;;;;;58.25;27.17;;;8.50;99.90;;;;;;5056922;28;20056;-87
2023/12/13 11:11:04;;;;;;;60.03;28.90;;;8.60;99.90;;;;;;5057128;28;20049;-86
2023/12/13 11:13:30;;;;;;;88.35;33.95;;;8.60;99.90;;;;;;5055554;28;20048;-86
2023/12/13 11:15:57;;;;;;;77.75;30.30;;;8.70;99.90;;;;;;5064556;28;20500;-87
2023/12/13 11:18:24;;;;;;;72.57;31.35;;;8.60;99.90;;;;;;5053084;28;20107;-86
2023/12/13 11:20:58;;;;;;;69.60;29.73;;;8.80;99.90;;;;;;5057207;28;20045;-87
2023/12/13 11:23:27;;;;;;;79.13;32.88;;;8.60;99.90;;;;;;5060477;28;20050;-86
2023/12/13 11:25:56;;;;;;;79.85;34.80;;;8.60;99.90;;;;;;5063200;28;20403;-87
2023/12/13 11:28:23;;;;;;;68.30;31.40;;;8.50;99.90;;;;;;5055615;28;20086;-85
2023/12/13 11:30:49;;;;;;;81.45;34.40;;;8.50;99.90;;;;;;5063758;28;20470;-84
2023/12/13 11:33:15;;;;;;;61.63;29.55;;;8.70;99.90;;;;;;5053556;28;20060;-84
2023/12/13 11:35:41;;;;;;;71.18;32.42;;;8.60;99.90;;;;;;5055248;28;20048;-84
2023/12/13 11:38:07;;;;;;;91.80;35.42;;;8.50;99.90;;;;;;5051879;28;20048;-85
2023/12/13 11:40:33;;;;;;;72.00;31.05;;;8.60;99.90;;;;;;5068248;28;20052;-86
2023/12/13 11:42:59;;;;;;;58.72;30.65;;;8.60;99.90;;;;;;5065858;28;20048;-86
2023/12/13 11:45:25;;;;;;;88.72;37.60;;;8.50;99.90;;;;;;5069613;28;20496;-87
2023/12/13 11:47:51;;;;;;;98.70;35.15;;;8.50;99.90;;;;;;5051835;28;20041;-85
2023/12/13 11:50:19;;;;;;;87.97;36.55;;;8.60;99.90;;;;;;5054981;28;20037;-85
2023/12/13 11:52:45;;;;;;;71.25;31.77;;;8.60;99.90;;;;;;5064562;28;20056;-87
2023/12/13 11:55:11;;;;;;;66.07;30.70;;;8.60;99.90;;;;;;5061866;28;20049;-85
2023/12/13 11:57:38;;;;;;;107.00;37.97;;;8.60;99.90;;;;;;5049798;28;20053;-87
2023/12/13 12:00:05;;;;;;;74.75;30.60;;;8.60;99.90;;;;;;5051488;28;20138;-87
2023/12/13 12:02:31;;;;;;;74.32;31.83;;;8.50;99.90;;;;;;5049545;28;20057;-86
2023/12/13 12:05:01;;;;;;;93.10;37.38;;;8.60;99.90;;;;;;5066216;28;20060;-87
2023/12/13 12:07:26;;;;;;;89.90;35.55;;;8.70;99.90;;;;;;5069504;28;20048;-86
2023/12/13 12:09:53;;;;;;;112.68;39.65;;;8.60;99.90;;;;;;5053751;28;20102;-86
2023/12/13 12:12:20;;;;;;;92.18;38.85;;;8.60;99.90;;;;;;5068579;28;20056;-85
2023/12/13 12:14:50;;;;;;;71.57;32.40;;;8.60;99.90;;;;;;5054226;28;20119;-86
2023/12/13 12:17:19;;;;;;;85.88;35.20;;;8.60;99.90;;;;;;5054116;28;20041;-87
2023/12/13 12:19:46;;;;;;;84.80;37.03;;;8.60;99.90;;;;;;5052364;28;20407;-86
2023/12/13 12:22:12;;;;;;;78.15;35.33;;;8.60;99.90;;;;;;5049705;28;20132;-86
2023/12/13 12:24:38;;;;;;;78.40;34.15;;;8.60;99.90;;;;;;5050564;28;20099;-86
2023/12/13 12:27:08;;;;;;;86.70;34.35;;;8.60;99.90;;;;;;5055414;28;20053;-86
2023/12/13 12:29:34;;;;;;;68.20;31.05;;;8.60;99.90;;;;;;5066195;28;20052;-86
2023/12/13 12:31:59;;;;;;;67.00;31.20;;;8.60;99.90;;;;;;5067824;28;20040;-86